Time;durP1;ratioP1;P1;durP2;ratioP2;P2;SDS_P1;SDS_P2;PMS_P1;PMS_P2;Temp;Humidity;BMP_temperature;BMP_pressure;BME280_temperature;BME280_humidity;BME280_pressure;Samples;Min_cycle;Max_cycle;Signal;HPM_P1;HPM_P2
2022/10/08 00:00:40;;;;;;;279.47;139.00;;;;;;;;;;4978844;28;20194;-56
2022/10/08 00:03:06;;;;;;;263.43;131.57;;;;;;;;;;4984397;28;20244;-56
2022/10/08 00:05:33;;;;;;;305.13;154.13;;;;;;;;;;4985676;28;20287;-56
2022/10/08 00:07:59;;;;;;;285.33;142.57;;;;;;;;;;4983029;28;20691;-56
2022/10/08 00:10:24;;;;;;;296.87;147.50;;;;;;;;;;4980382;28;20381;-56
2022/10/08 00:12:50;;;;;;;290.60;144.57;;;;;;;;;;4981292;28;20719;-56
2022/10/08 00:15:16;;;;;;;303.90;151.77;;;;;;;;;;4977603;28;20220;-56
2022/10/08 00:17:42;;;;;;;287.17;141.83;;;;;;;;;;5011787;28;20208;-56
2022/10/08 00:20:08;;;;;;;300.63;150.53;;;;;;;;;;4983725;28;20236;-56
2022/10/08 00:22:34;;;;;;;295.63;145.30;;;;;;;;;;4984648;28;20317;-56
2022/10/08 00:25:00;;;;;;;271.97;136.43;;;;;;;;;;4989534;28;20221;-56
2022/10/08 00:27:28;;;;;;;269.03;133.43;;;;;;;;;;4988445;28;20182;-56
2022/10/08 00:29:54;;;;;;;283.83;142.87;;;;;;;;;;4982008;28;20213;-55
2022/10/08 00:32:20;;;;;;;266.93;133.47;;;;;;;;;;4983288;28;20223;-56
2022/10/08 00:34:46;;;;;;;262.43;133.10;;;;;;;;;;4984478;28;20244;-56
2022/10/08 00:37:13;;;;;;;282.47;141.60;;;;;;;;;;4988716;28;20641;-56
2022/10/08 00:39:40;;;;;;;316.50;157.10;;;;;;;;;;4982141;28;20414;-56
2022/10/08 00:42:06;;;;;;;270.97;136.63;;;;;;;;;;4989568;28;20219;-56
2022/10/08 00:44:52;;;;;;;299.57;147.90;;;;;;;;;;4987572;28;20247;-56
2022/10/08 00:47:18;;;;;;;275.13;137.67;;;;;;;;;;4981921;28;20221;-56
2022/10/08 00:49:45;;;;;;;281.50;141.90;;;;;;;;;;4987701;28;20297;-56
2022/10/08 00:52:11;;;;;;;274.83;137.80;;;;;;;;;;4986160;28;20208;-56
2022/10/08 00:54:37;;;;;;;316.10;156.17;;;;;;;;;;4990099;28;20232;-56
2022/10/08 00:57:05;;;;;;;287.70;142.93;;;;;;;;;;4988113;28;20747;-56
2022/10/08 00:59:31;;;;;;;286.67;142.10;;;;;;;;;;4984248;28;20251;-56
2022/10/08 01:01:57;;;;;;;287.17;142.10;;;;;;;;;;4980725;28;20251;-56
2022/10/08 01:04:23;;;;;;;301.77;150.80;;;;;;;;;;4979474;28;20646;-56
2022/10/08 01:06:53;;;;;;;277.03;135.73;;;;;;;;;;4993976;28;20188;-56
2022/10/08 01:09:22;;;;;;;306.43;150.77;;;;;;;;;;4991688;28;20214;-56
2022/10/08 01:11:57;;;;;;;301.87;148.60;;;;;;;;;;4984285;28;20303;-56
2022/10/08 01:14:40;;;;;;;290.40;144.57;;;;;;;;;;4986714;28;20991;-56
2022/10/08 01:17:09;;;;;;;300.83;146.80;;;;;;;;;;4984803;28;20217;-56
2022/10/08 01:19:54;;;;;;;305.23;151.90;;;;;;;;;;4989148;28;20215;-56
2022/10/08 01:22:29;;;;;;;282.87;142.37;;;;;;;;;;4987639;28;20217;-56
2022/10/08 01:28:15;;;;;;;290.93;143.97;;;;;;;;;;4997843;28;20219;-56
2022/10/08 01:30:47;;;;;;;283.17;140.07;;;;;;;;;;4982715;28;20201;-56
2022/10/08 01:33:17;;;;;;;273.70;135.77;;;;;;;;;;4982049;28;20805;-56
2022/10/08 01:35:44;;;;;;;341.67;171.53;;;;;;;;;;4977897;28;20527;-56
2022/10/08 01:38:13;;;;;;;289.90;143.67;;;;;;;;;;4985548;28;20208;-56
2022/10/08 01:40:41;;;;;;;308.17;152.23;;;;;;;;;;4985814;28;20209;-56
2022/10/08 01:43:09;;;;;;;295.50;148.53;;;;;;;;;;4988729;28;20624;-56
2022/10/08 01:45:36;;;;;;;314.57;158.07;;;;;;;;;;4983796;28;20201;-56
2022/10/08 01:48:05;;;;;;;270.43;136.10;;;;;;;;;;4986589;28;20225;-56
2022/10/08 01:50:37;;;;;;;315.63;160.43;;;;;;;;;;4979034;28;20232;-56
2022/10/08 01:53:06;;;;;;;283.17;141.37;;;;;;;;;;4985548;28;20220;-56
2022/10/08 01:55:37;;;;;;;311.33;155.93;;;;;;;;;;4978780;28;20222;-56
2022/10/08 01:58:05;;;;;;;272.93;136.30;;;;;;;;;;4979546;28;20249;-56
2022/10/08 02:00:33;;;;;;;295.77;146.83;;;;;;;;;;4982609;28;20182;-56
2022/10/08 02:02:59;;;;;;;294.30;146.77;;;;;;;;;;4983779;28;20224;-56
2022/10/08 02:05:27;;;;;;;286.17;142.80;;;;;;;;;;4985773;28;20224;-56
2022/10/08 02:07:54;;;;;;;295.03;150.63;;;;;;;;;;4979568;28;20756;-56
2022/10/08 02:10:22;;;;;;;307.23;153.90;;;;;;;;;;4991536;28;20320;-56
2022/10/08 02:12:48;;;;;;;316.77;161.77;;;;;;;;;;4982049;28;20260;-56
2022/10/08 02:15:16;;;;;;;316.67;162.20;;;;;;;;;;4973764;28;20693;-56
2022/10/08 02:17:42;;;;;;;304.20;152.03;;;;;;;;;;4983378;28;20634;-56
2022/10/08 02:20:17;;;;;;;368.73;195.37;;;;;;;;;;4980844;28;20209;-55
2022/10/08 02:22:57;;;;;;;268.23;133.93;;;;;;;;;;4983732;28;20224;-55
2022/10/08 02:25:30;;;;;;;295.03;148.50;;;;;;;;;;4984215;28;20216;-55
2022/10/08 02:28:02;;;;;;;289.20;144.67;;;;;;;;;;4979396;28;20188;-55
2022/10/08 02:30:31;;;;;;;296.80;149.77;;;;;;;;;;4978590;28;20212;-55
2022/10/08 02:32:59;;;;;;;295.50;146.80;;;;;;;;;;4987078;28;20224;-55
2022/10/08 02:35:33;;;;;;;299.90;151.60;;;;;;;;;;4984638;28;20709;-55
2022/10/08 02:38:02;;;;;;;283.40;143.23;;;;;;;;;;4983774;28;20241;-55
2022/10/08 02:40:29;;;;;;;281.53;141.10;;;;;;;;;;4985255;28;20217;-56
2022/10/08 02:42:59;;;;;;;282.83;142.30;;;;;;;;;;4987617;28;20182;-56
2022/10/08 02:45:28;;;;;;;290.33;145.63;;;;;;;;;;4983296;28;20216;-55
2022/10/08 02:47:57;;;;;;;295.20;148.27;;;;;;;;;;4982991;28;20697;-56
2022/10/08 02:50:24;;;;;;;279.73;139.73;;;;;;;;;;4986859;28;20225;-56
2022/10/08 02:52:50;;;;;;;314.77;156.60;;;;;;;;;;4980041;28;20227;-55
2022/10/08 02:55:19;;;;;;;282.50;142.60;;;;;;;;;;4978439;28;20299;-55
2022/10/08 02:57:49;;;;;;;291.67;146.87;;;;;;;;;;5021100;28;20239;-55
2022/10/08 03:00:15;;;;;;;294.50;149.00;;;;;;;;;;4971183;28;20184;-55
2022/10/08 03:02:43;;;;;;;306.80;158.57;;;;;;;;;;4975950;28;20217;-56
2022/10/08 03:05:13;;;;;;;336.90;170.77;;;;;;;;;;4979231;28;20224;-55
2022/10/08 03:07:39;;;;;;;290.90;145.43;;;;;;;;;;4982622;28;20525;-55
2022/10/08 03:10:06;;;;;;;321.03;163.77;;;;;;;;;;4980440;28;20303;-55
2022/10/08 03:12:32;;;;;;;291.93;148.93;;;;;;;;;;4977582;28;20209;-56
2022/10/08 03:14:59;;;;;;;305.23;154.53;;;;;;;;;;4979338;28;20228;-55
2022/10/08 03:17:29;;;;;;;312.97;158.60;;;;;;;;;;4974494;28;20244;-55
2022/10/08 03:19:55;;;;;;;306.47;155.93;;;;;;;;;;4982269;28;20204;-55
2022/10/08 03:22:22;;;;;;;280.00;141.30;;;;;;;;;;4978415;28;20244;-55
2022/10/08 03:24:48;;;;;;;313.73;160.50;;;;;;;;;;4977358;28;21373;-55
2022/10/08 03:27:14;;;;;;;296.17;147.33;;;;;;;;;;4976752;28;20185;-55
2022/10/08 03:29:40;;;;;;;281.83;141.83;;;;;;;;;;4979642;28;20622;-55
2022/10/08 03:32:06;;;;;;;290.80;148.03;;;;;;;;;;4977143;28;20387;-55
2022/10/08 03:34:32;;;;;;;289.27;143.87;;;;;;;;;;4978520;28;20700;-56
2022/10/08 03:36:58;;;;;;;272.50;135.20;;;;;;;;;;4972412;28;20220;-55
2022/10/08 03:39:24;;;;;;;299.57;149.73;;;;;;;;;;4979156;28;20193;-55
2022/10/08 03:41:49;;;;;;;272.27;136.70;;;;;;;;;;4979123;28;20568;-55
2022/10/08 03:44:15;;;;;;;289.63;143.33;;;;;;;;;;4982341;28;20212;-55
2022/10/08 03:46:41;;;;;;;276.50;137.97;;;;;;;;;;4979664;28;20752;-56
2022/10/08 03:49:07;;;;;;;311.10;156.90;;;;;;;;;;4983970;28;20243;-55
2022/10/08 03:51:33;;;;;;;316.70;160.60;;;;;;;;;;4979625;28;20186;-55
2022/10/08 03:53:59;;;;;;;285.00;143.47;;;;;;;;;;4991545;28;20445;-55
2022/10/08 03:56:25;;;;;;;300.30;151.53;;;;;;;;;;4981114;28;20229;-55
2022/10/08 03:58:52;;;;;;;306.57;157.43;;;;;;;;;;4974869;28;20223;-55
2022/10/08 04:01:18;;;;;;;287.97;144.80;;;;;;;;;;4977541;28;20245;-55
2022/10/08 04:03:44;;;;;;;309.70;159.17;;;;;;;;;;4981491;28;20220;-55
2022/10/08 04:06:11;;;;;;;266.87;132.40;;;;;;;;;;4987869;28;20698;-55
2022/10/08 04:08:37;;;;;;;298.80;149.13;;;;;;;;;;4991632;28;20219;-55
2022/10/08 04:11:04;;;;;;;287.37;144.30;;;;;;;;;;4992153;28;20597;-55
2022/10/08 04:13:30;;;;;;;332.93;170.30;;;;;;;;;;4980399;28;20267;-56
2022/10/08 04:16:00;;;;;;;286.03;144.07;;;;;;;;;;4979180;28;20224;-55
2022/10/08 04:18:26;;;;;;;272.60;138.53;;;;;;;;;;4978799;28;20169;-56
2022/10/08 04:20:55;;;;;;;285.83;144.80;;;;;;;;;;4986432;28;20223;-55
2022/10/08 04:23:21;;;;;;;280.93;142.13;;;;;;;;;;4980276;28;20417;-55
2022/10/08 04:25:49;;;;;;;297.13;150.13;;;;;;;;;;4974063;28;20230;-55
2022/10/08 04:28:15;;;;;;;300.90;150.77;;;;;;;;;;4980522;28;20872;-56
2022/10/08 04:30:41;;;;;;;294.83;149.00;;;;;;;;;;4978668;28;20426;-55
2022/10/08 04:33:06;;;;;;;286.63;144.00;;;;;;;;;;4986647;28;20177;-55
2022/10/08 04:35:36;;;;;;;305.33;155.53;;;;;;;;;;4979620;28;20231;-55
2022/10/08 04:38:02;;;;;;;317.00;161.90;;;;;;;;;;4978894;28;20221;-55
2022/10/08 04:40:28;;;;;;;284.80;141.87;;;;;;;;;;4979306;28;20224;-55
2022/10/08 04:42:54;;;;;;;301.03;152.00;;;;;;;;;;4980974;28;20244;-55
2022/10/08 04:45:20;;;;;;;330.83;164.77;;;;;;;;;;4985093;28;20590;-55
2022/10/08 04:47:46;;;;;;;298.83;151.07;;;;;;;;;;4976500;28;20217;-55
2022/10/08 04:50:12;;;;;;;323.33;166.00;;;;;;;;;;4978876;28;20315;-55
2022/10/08 04:52:37;;;;;;;304.57;153.77;;;;;;;;;;4975697;28;20659;-55
2022/10/08 04:55:03;;;;;;;312.37;159.73;;;;;;;;;;4975725;28;20221;-56
2022/10/08 04:57:30;;;;;;;297.37;151.93;;;;;;;;;;4979612;28;22310;-56
2022/10/08 04:59:56;;;;;;;281.77;142.90;;;;;;;;;;4976131;28;20428;-55
2022/10/08 05:02:22;;;;;;;280.53;142.70;;;;;;;;;;4986994;28;20229;-55
2022/10/08 05:04:48;;;;;;;314.00;158.03;;;;;;;;;;4979909;28;20685;-55
2022/10/08 05:07:14;;;;;;;274.33;138.90;;;;;;;;;;4980064;28;20208;-55
2022/10/08 05:09:40;;;;;;;288.30;147.83;;;;;;;;;;4988133;28;20217;-55
2022/10/08 05:12:06;;;;;;;313.73;160.93;;;;;;;;;;4978193;28;22335;-55
2022/10/08 05:14:32;;;;;;;290.70;146.00;;;;;;;;;;4980122;28;20557;-56
2022/10/08 05:16:58;;;;;;;283.83;141.73;;;;;;;;;;4992112;28;20216;-55
2022/10/08 05:19:24;;;;;;;260.03;130.43;;;;;;;;;;4997540;28;20217;-55
2022/10/08 05:21:50;;;;;;;265.43;137.70;;;;;;;;;;4992613;28;20177;-55
2022/10/08 05:24:15;;;;;;;286.47;142.80;;;;;;;;;;4995298;28;20184;-55
2022/10/08 05:26:41;;;;;;;273.27;136.43;;;;;;;;;;4995741;28;20223;-55
2022/10/08 05:29:09;;;;;;;284.67;145.27;;;;;;;;;;4990774;28;20674;-56
2022/10/08 05:31:35;;;;;;;298.00;152.10;;;;;;;;;;5018287;28;20293;-56
2022/10/08 05:34:01;;;;;;;285.23;142.23;;;;;;;;;;4978879;28;20206;-56
2022/10/08 05:36:31;;;;;;;293.20;148.83;;;;;;;;;;4977705;28;20220;-56
2022/10/08 05:38:59;;;;;;;309.00;155.23;;;;;;;;;;4981870;28;20224;-56
2022/10/08 05:41:26;;;;;;;282.53;142.03;;;;;;;;;;4991919;28;20628;-56
2022/10/08 05:43:53;;;;;;;270.47;136.70;;;;;;;;;;4987563;28;20579;-56
2022/10/08 05:46:19;;;;;;;280.47;141.53;;;;;;;;;;4978747;28;20218;-55
2022/10/08 05:48:45;;;;;;;308.93;157.97;;;;;;;;;;4983315;28;20689;-55
2022/10/08 05:51:15;;;;;;;305.00;154.90;;;;;;;;;;4978953;28;20550;-56
2022/10/08 05:53:42;;;;;;;291.23;148.63;;;;;;;;;;4975993;28;20307;-56
2022/10/08 05:56:09;;;;;;;317.60;164.33;;;;;;;;;;4979144;28;20307;-55
2022/10/08 05:58:36;;;;;;;319.87;160.07;;;;;;;;;;4978089;28;20217;-55
2022/10/08 06:01:04;;;;;;;315.50;165.53;;;;;;;;;;4974861;28;20220;-56
2022/10/08 06:03:30;;;;;;;393.43;212.13;;;;;;;;;;4972890;28;20204;-56
2022/10/08 06:06:01;;;;;;;357.03;188.63;;;;;;;;;;4973534;28;20221;-55
2022/10/08 06:08:27;;;;;;;316.47;163.80;;;;;;;;;;4970929;28;20590;-55
2022/10/08 06:10:53;;;;;;;289.67;149.07;;;;;;;;;;4978806;28;20213;-55
2022/10/08 06:13:20;;;;;;;309.00;160.37;;;;;;;;;;4979293;28;20326;-55
2022/10/08 06:15:55;;;;;;;348.37;184.37;;;;;;;;;;4985244;28;20213;-56
2022/10/08 06:18:22;;;;;;;296.17;152.13;;;;;;;;;;4980287;28;20177;-56
2022/10/08 06:20:48;;;;;;;310.07;163.50;;;;;;;;;;4981211;28;20219;-56
2022/10/08 06:23:13;;;;;;;331.43;175.00;;;;;;;;;;4969348;28;20365;-55
2022/10/08 06:25:39;;;;;;;360.27;190.53;;;;;;;;;;4974269;28;20311;-55
2022/10/08 06:28:05;;;;;;;307.73;160.00;;;;;;;;;;4985767;28;20540;-55
2022/10/08 06:30:31;;;;;;;319.40;163.93;;;;;;;;;;4991002;28;20189;-56
2022/10/08 06:32:57;;;;;;;339.13;173.97;;;;;;;;;;4968742;28;20209;-56
2022/10/08 06:35:23;;;;;;;328.53;167.17;;;;;;;;;;4974171;28;20225;-56
2022/10/08 06:37:49;;;;;;;332.73;175.67;;;;;;;;;;4974155;28;20736;-56
2022/10/08 06:40:15;;;;;;;333.00;169.23;;;;;;;;;;4977077;28;20309;-56
2022/10/08 06:42:41;;;;;;;350.80;186.13;;;;;;;;;;4972721;28;20192;-57
2022/10/08 06:45:07;;;;;;;327.90;170.20;;;;;;;;;;4980862;28;20868;-55
2022/10/08 06:47:33;;;;;;;339.73;175.13;;;;;;;;;;4971278;28;20232;-56
2022/10/08 06:50:00;;;;;;;352.97;186.27;;;;;;;;;;4969265;28;20678;-56
2022/10/08 06:52:26;;;;;;;344.10;177.83;;;;;;;;;;4977922;28;20259;-56
2022/10/08 06:54:52;;;;;;;386.73;208.30;;;;;;;;;;4975694;28;20274;-55
2022/10/08 06:57:18;;;;;;;336.13;171.23;;;;;;;;;;4973694;28;20173;-55
2022/10/08 06:59:44;;;;;;;388.50;208.17;;;;;;;;;;4966705;28;21091;-55
2022/10/08 07:02:10;;;;;;;333.40;170.80;;;;;;;;;;4982055;28;20686;-55
2022/10/08 07:04:36;;;;;;;384.07;205.33;;;;;;;;;;4967912;28;20310;-55
2022/10/08 07:07:02;;;;;;;334.87;169.60;;;;;;;;;;4963967;28;20579;-55
2022/10/08 07:09:28;;;;;;;324.00;166.97;;;;;;;;;;4981881;28;20189;-55
2022/10/08 07:11:54;;;;;;;337.03;175.63;;;;;;;;;;4977295;28;20223;-55
2022/10/08 07:14:20;;;;;;;337.33;176.67;;;;;;;;;;4966105;28;20206;-55
2022/10/08 07:16:46;;;;;;;348.90;180.10;;;;;;;;;;4980092;28;20225;-55
2022/10/08 07:19:12;;;;;;;348.47;182.10;;;;;;;;;;4980745;28;20752;-55
2022/10/08 07:21:39;;;;;;;338.93;177.60;;;;;;;;;;4977724;28;20188;-55
2022/10/08 07:24:05;;;;;;;319.13;167.40;;;;;;;;;;4983074;28;20268;-56
2022/10/08 07:26:33;;;;;;;369.47;193.00;;;;;;;;;;4985564;28;20645;-55
2022/10/08 07:29:04;;;;;;;315.00;158.73;;;;;;;;;;4975659;28;20522;-55
2022/10/08 07:31:31;;;;;;;325.30;162.80;;;;;;;;;;4974551;28;20208;-55
2022/10/08 07:33:58;;;;;;;328.43;168.83;;;;;;;;;;4979931;28;20251;-55
2022/10/08 07:36:24;;;;;;;328.33;167.93;;;;;;;;;;4980072;28;20692;-53
2022/10/08 07:38:57;;;;;;;329.07;171.23;;;;;;;;;;4980024;28;20220;-52
2022/10/08 07:41:23;;;;;;;314.83;159.53;;;;;;;;;;4988845;28;20637;-52
2022/10/08 07:43:51;;;;;;;334.27;173.53;;;;;;;;;;4988546;28;20295;-52
2022/10/08 07:46:17;;;;;;;306.60;154.63;;;;;;;;;;4979856;28;20217;-52
2022/10/08 07:48:43;;;;;;;342.77;177.47;;;;;;;;;;4979859;28;20181;-53
2022/10/08 07:51:09;;;;;;;333.60;169.60;;;;;;;;;;4979576;28;20601;-52
2022/10/08 07:53:35;;;;;;;346.73;178.37;;;;;;;;;;4975023;28;21933;-52
2022/10/08 07:56:01;;;;;;;373.90;194.40;;;;;;;;;;4966362;28;20620;-55
2022/10/08 07:58:27;;;;;;;340.40;170.23;;;;;;;;;;4976231;28;22068;-55
2022/10/08 08:00:57;;;;;;;338.80;174.63;;;;;;;;;;4982311;28;20235;-55
2022/10/08 08:03:23;;;;;;;331.77;172.93;;;;;;;;;;4981798;28;20185;-55
2022/10/08 08:05:49;;;;;;;355.13;187.57;;;;;;;;;;4977168;28;20229;-55
2022/10/08 08:08:15;;;;;;;327.20;166.63;;;;;;;;;;4980074;28;20221;-56
2022/10/08 08:10:41;;;;;;;376.97;192.00;;;;;;;;;;4967184;28;20973;-55
2022/10/08 08:13:06;;;;;;;335.93;170.90;;;;;;;;;;4977145;28;20251;-55
2022/10/08 08:15:32;;;;;;;374.57;197.30;;;;;;;;;;4978479;28;20271;-55
2022/10/08 08:17:58;;;;;;;359.43;176.10;;;;;;;;;;4975890;28;20219;-55
2022/10/08 08:20:24;;;;;;;310.20;149.77;;;;;;;;;;4990298;28;20228;-55
2022/10/08 08:22:50;;;;;;;365.27;178.30;;;;;;;;;;4978137;28;20339;-55
2022/10/08 08:25:16;;;;;;;342.57;163.43;;;;;;;;;;4976211;28;20232;-55
2022/10/08 08:27:42;;;;;;;354.57;172.67;;;;;;;;;;4979495;28;20178;-55
2022/10/08 08:30:08;;;;;;;368.57;178.10;;;;;;;;;;4987790;28;20191;-55
2022/10/08 08:32:34;;;;;;;338.43;162.90;;;;;;;;;;4988877;28;20255;-55
2022/10/08 08:35:00;;;;;;;334.40;171.40;;;;;;;;;;4973489;28;20343;-55
2022/10/08 08:37:26;;;;;;;309.00;152.87;;;;;;;;;;4990338;28;20300;-56
2022/10/08 08:39:52;;;;;;;323.70;164.23;;;;;;;;;;4989516;28;20652;-55
2022/10/08 08:42:22;;;;;;;328.03;165.73;;;;;;;;;;4988647;28;20294;-55
2022/10/08 08:45:08;;;;;;;339.97;173.00;;;;;;;;;;4991976;28;20216;-55
2022/10/08 08:47:41;;;;;;;329.10;167.60;;;;;;;;;;4994507;28;20215;-55
2022/10/08 08:50:26;;;;;;;326.17;163.37;;;;;;;;;;4993401;28;20208;-55
2022/10/08 08:52:52;;;;;;;336.50;169.60;;;;;;;;;;5021463;28;20270;-55
2022/10/08 08:55:19;;;;;;;324.47;162.93;;;;;;;;;;4991721;28;20257;-55
2022/10/08 08:57:50;;;;;;;312.77;155.03;;;;;;;;;;4993464;28;20532;-55
2022/10/08 09:00:18;;;;;;;343.40;173.57;;;;;;;;;;4991391;28;20609;-55
2022/10/08 09:02:59;;;;;;;334.33;167.67;;;;;;;;;;4995620;28;20216;-55
2022/10/08 09:05:26;;;;;;;328.07;169.00;;;;;;;;;;4992344;28;20387;-55
2022/10/08 09:07:56;;;;;;;320.27;156.80;;;;;;;;;;4992832;28;20296;-55
2022/10/08 09:10:31;;;;;;;327.90;162.33;;;;;;;;;;4991822;28;20598;-55
2022/10/08 09:12:57;;;;;;;320.17;160.03;;;;;;;;;;4987694;28;20181;-55
2022/10/08 09:15:25;;;;;;;327.70;163.30;;;;;;;;;;4993427;28;20209;-56
2022/10/08 09:17:51;;;;;;;317.57;157.40;;;;;;;;;;4992980;28;20800;-55
2022/10/08 09:20:18;;;;;;;332.73;166.67;;;;;;;;;;4992307;28;20497;-55
2022/10/08 09:22:45;;;;;;;339.07;174.10;;;;;;;;;;4990772;28;20221;-55
2022/10/08 09:25:16;;;;;;;349.03;176.10;;;;;;;;;;4981442;28;20251;-55
2022/10/08 09:27:53;;;;;;;332.90;164.80;;;;;;;;;;4969295;28;20248;-55
2022/10/08 09:30:30;;;;;;;356.00;180.17;;;;;;;;;;4969079;28;20212;-55
2022/10/08 09:33:02;;;;;;;333.67;166.73;;;;;;;;;;4970267;28;20456;-55
2022/10/08 09:35:27;;;;;;;333.87;167.53;;;;;;;;;;4973035;28;20213;-55
2022/10/08 09:37:55;;;;;;;312.50;153.77;;;;;;;;;;4973257;28;20209;-55
2022/10/08 09:40:23;;;;;;;328.97;165.63;;;;;;;;;;4976276;28;20264;-55
2022/10/08 09:43:08;;;;;;;329.47;166.50;;;;;;;;;;4977021;28;20178;-54
2022/10/08 09:45:38;;;;;;;371.83;191.40;;;;;;;;;;4968265;28;20277;-55
2022/10/08 09:48:17;;;;;;;354.23;187.23;;;;;;;;;;4969806;28;20242;-55
2022/10/08 09:50:54;;;;;;;357.47;185.50;;;;;;;;;;4973760;28;20598;-55
2022/10/08 09:53:21;;;;;;;337.13;170.53;;;;;;;;;;4969542;28;20220;-55
2022/10/08 09:55:49;;;;;;;362.47;189.67;;;;;;;;;;4971463;28;20225;-55
2022/10/08 09:58:18;;;;;;;330.27;172.87;;;;;;;;;;4972905;28;20273;-55
2022/10/08 10:00:44;;;;;;;358.83;188.57;;;;;;;;;;4971723;28;20181;-55
2022/10/08 10:03:16;;;;;;;353.97;181.67;;;;;;;;;;4973139;28;20201;-55
2022/10/08 10:05:43;;;;;;;373.42;190.93;;;;;;;;;;4969351;28;20368;-55
2022/10/08 10:08:42;;;;;;;336.67;168.83;;;;;;;;;;4971504;28;20229;-55
2022/10/08 10:11:11;;;;;;;393.63;205.93;;;;;;;;;;4959130;28;20449;-55
2022/10/08 10:13:38;;;;;;;345.13;173.07;;;;;;;;;;4986943;28;20214;-55
2022/10/08 10:16:04;;;;;;;347.90;178.67;;;;;;;;;;4973926;28;20229;-55
2022/10/08 10:18:33;;;;;;;382.93;201.63;;;;;;;;;;4963791;28;21542;-54
2022/10/08 10:21:00;;;;;;;358.90;180.93;;;;;;;;;;4961554;28;20708;-55
2022/10/08 10:23:38;;;;;;;366.13;192.47;;;;;;;;;;4992513;28;20221;-55
2022/10/08 10:26:04;;;;;;;340.67;170.70;;;;;;;;;;4985971;28;20221;-55
2022/10/08 10:28:41;;;;;;;328.40;161.93;;;;;;;;;;4987180;28;20794;-55
2022/10/08 10:31:11;;;;;;;328.38;164.05;;;;;;;;;;4991120;28;20287;-55
2022/10/08 10:33:41;;;;;;;363.67;185.93;;;;;;;;;;4988829;28;20178;-51
2022/10/08 10:36:10;;;;;;;342.23;173.97;;;;;;;;;;4993746;28;20222;-52
2022/10/08 10:38:38;;;;;;;395.83;210.83;;;;;;;;;;4988098;28;20241;-57
2022/10/08 10:41:10;;;;;;;353.45;181.82;;;;;;;;;;4977677;28;20347;-58
2022/10/08 10:43:39;;;;;;;383.47;202.47;;;;;;;;;;4987179;28;20291;-58
2022/10/08 10:46:12;;;;;;;363.13;192.82;;;;;;;;;;4982762;28;20308;-57
2022/10/08 10:48:38;;;;;;;334.60;174.90;;;;;;;;;;4989043;28;20750;-57
2022/10/08 10:51:20;;;;;;;380.73;203.00;;;;;;;;;;4983558;28;20269;-57
2022/10/08 10:53:48;;;;;;;379.60;203.00;;;;;;;;;;4979467;28;20636;-55
2022/10/08 10:56:18;;;;;;;415.77;224.73;;;;;;;;;;4980703;28;20226;-54
2022/10/08 10:59:03;;;;;;;374.48;193.60;;;;;;;;;;4986314;28;20314;-54
2022/10/08 11:01:29;;;;;;;353.30;179.13;;;;;;;;;;4980567;28;20487;-54
2022/10/08 11:03:58;;;;;;;344.58;173.00;;;;;;;;;;4980995;28;20653;-54
2022/10/08 11:06:42;;;;;;;347.63;179.82;;;;;;;;;;4978207;28;20205;-54
2022/10/08 11:09:13;;;;;;;318.45;158.07;;;;;;;;;;4982125;28;20217;-54
2022/10/08 11:11:39;;;;;;;343.83;174.47;;;;;;;;;;4977482;28;20233;-54
2022/10/08 11:14:24;;;;;;;342.38;172.38;;;;;;;;;;4979756;28;20694;-54
2022/10/08 11:17:09;;;;;;;371.23;190.03;;;;;;;;;;4982248;28;20252;-55
2022/10/08 11:19:38;;;;;;;362.88;193.10;;;;;;;;;;4974066;28;20260;-54
2022/10/08 11:22:10;;;;;;;357.60;193.45;;;;;;;;;;4978191;28;20227;-54
2022/10/08 11:24:43;;;;;;;334.17;169.45;;;;;;;;;;4978481;28;20228;-55
2022/10/08 11:27:32;;;;;;;343.97;177.50;;;;;;;;;;4984491;28;20221;-55
2022/10/08 11:30:12;;;;;;;407.13;216.30;;;;;;;;;;4977184;28;20307;-55
2022/10/08 11:32:40;;;;;;;365.80;192.10;;;;;;;;;;4975239;28;20303;-55
2022/10/08 11:35:30;;;;;;;378.35;201.32;;;;;;;;;;4974267;28;20977;-55
2022/10/08 11:38:15;;;;;;;368.77;193.85;;;;;;;;;;4978590;28;20864;-55
2022/10/08 11:40:41;;;;;;;354.50;183.57;;;;;;;;;;4981010;28;20591;-55
2022/10/08 11:43:07;;;;;;;340.57;181.60;;;;;;;;;;4978978;28;20259;-55
2022/10/08 11:45:38;;;;;;;409.63;225.43;;;;;;;;;;4972754;28;20282;-55
2022/10/08 11:48:23;;;;;;;360.17;194.10;;;;;;;;;;4980321;28;20307;-55
2022/10/08 11:50:49;;;;;;;405.93;225.47;;;;;;;;;;4977369;28;20586;-55
2022/10/08 11:53:18;;;;;;;348.10;187.83;;;;;;;;;;4977177;28;20220;-55
2022/10/08 11:55:53;;;;;;;343.43;181.40;;;;;;;;;;4985164;28;20255;-55
2022/10/08 11:58:39;;;;;;;335.33;178.70;;;;;;;;;;4983504;28;20212;-55
2022/10/08 12:01:06;;;;;;;375.17;205.40;;;;;;;;;;4976140;28;20623;-55
2022/10/08 12:03:33;;;;;;;346.33;186.13;;;;;;;;;;4988247;28;20736;-55
2022/10/08 12:06:12;;;;;;;336.97;180.93;;;;;;;;;;4982289;28;20229;-55
2022/10/08 12:08:48;;;;;;;340.63;182.73;;;;;;;;;;4990035;28;20205;-55
2022/10/08 12:11:29;;;;;;;368.00;199.90;;;;;;;;;;4979770;28;20220;-55
2022/10/08 12:14:16;;;;;;;364.50;195.13;;;;;;;;;;4975875;28;20704;-55
2022/10/08 12:16:47;;;;;;;382.93;202.73;;;;;;;;;;4969526;28;20224;-55
2022/10/08 12:19:35;;;;;;;350.43;182.10;;;;;;;;;;4979580;28;20217;-55
2022/10/08 12:22:16;;;;;;;338.80;180.40;;;;;;;;;;4988471;28;20221;-55
2022/10/08 12:24:46;;;;;;;336.67;173.93;;;;;;;;;;5001673;28;20193;-55
2022/10/08 12:27:23;;;;;;;332.20;173.33;;;;;;;;;;4991356;28;20185;-55
2022/10/08 12:29:51;;;;;;;326.87;165.60;;;;;;;;;;4990199;28;20221;-55
2022/10/08 12:32:17;;;;;;;330.57;167.73;;;;;;;;;;4988818;28;20217;-55
2022/10/08 12:34:43;;;;;;;334.53;173.70;;;;;;;;;;4989659;28;20588;-55
2022/10/08 12:37:15;;;;;;;324.03;167.73;;;;;;;;;;4988663;28;20233;-55
2022/10/08 12:39:43;;;;;;;330.23;163.53;;;;;;;;;;4991910;28;20196;-55
2022/10/08 12:42:23;;;;;;;323.37;160.77;;;;;;;;;;4988970;28;20189;-55
2022/10/08 12:45:14;;;;;;;363.20;190.90;;;;;;;;;;4970276;28;20238;-55
2022/10/08 12:47:49;;;;;;;360.47;181.77;;;;;;;;;;4977864;28;20693;-55
2022/10/08 12:50:15;;;;;;;365.40;185.27;;;;;;;;;;4976631;28;20227;-55
2022/10/08 12:52:41;;;;;;;367.40;192.77;;;;;;;;;;4976889;28;20219;-55
2022/10/08 12:55:14;;;;;;;359.53;182.47;;;;;;;;;;4973432;28;20951;-55
2022/10/08 12:57:40;;;;;;;351.17;178.90;;;;;;;;;;4987000;28;20189;-55
2022/10/08 13:00:28;;;;;;;361.13;183.47;;;;;;;;;;4981455;28;20622;-55
2022/10/08 13:03:04;;;;;;;359.13;181.37;;;;;;;;;;4975300;28;20717;-55
2022/10/08 13:05:32;;;;;;;376.60;191.77;;;;;;;;;;4969744;28;20256;-55
2022/10/08 13:07:58;;;;;;;335.87;169.20;;;;;;;;;;4973974;28;20224;-55
2022/10/08 13:10:25;;;;;;;335.43;163.50;;;;;;;;;;4981227;28;23916;-54
2022/10/08 13:12:58;;;;;;;325.80;157.77;;;;;;;;;;4977045;28;20208;-55
2022/10/08 13:15:25;;;;;;;330.00;162.87;;;;;;;;;;4979239;28;20650;-55
2022/10/08 13:17:52;;;;;;;371.40;186.37;;;;;;;;;;4977483;28;20220;-55
2022/10/08 13:20:19;;;;;;;354.60;176.80;;;;;;;;;;4976165;28;20212;-55
2022/10/08 13:22:45;;;;;;;330.87;159.07;;;;;;;;;;4982969;28;20227;-55
2022/10/08 13:25:30;;;;;;;350.10;171.87;;;;;;;;;;4981598;28;20229;-55
2022/10/08 13:28:15;;;;;;;365.67;177.13;;;;;;;;;;4972779;28;20554;-55
2022/10/08 13:30:45;;;;;;;352.40;174.93;;;;;;;;;;4981843;28;20197;-55
2022/10/08 13:33:13;;;;;;;349.20;174.50;;;;;;;;;;4986000;28;20590;-55
2022/10/08 13:35:40;;;;;;;389.23;193.93;;;;;;;;;;4985260;28;20239;-55
2022/10/08 13:38:06;;;;;;;365.87;181.67;;;;;;;;;;4981634;28;20217;-55
2022/10/08 13:40:32;;;;;;;344.77;166.33;;;;;;;;;;4974088;28;20217;-55
2022/10/08 13:42:58;;;;;;;384.60;193.10;;;;;;;;;;4972020;28;20221;-55
2022/10/08 13:45:26;;;;;;;367.53;181.47;;;;;;;;;;4979411;28;20213;-55
2022/10/08 13:47:52;;;;;;;317.17;153.33;;;;;;;;;;4987529;28;20216;-56
2022/10/08 13:50:19;;;;;;;339.63;165.17;;;;;;;;;;4984919;28;20229;-55
2022/10/08 13:52:47;;;;;;;382.60;192.80;;;;;;;;;;4981030;28;20582;-55
2022/10/08 13:55:27;;;;;;;371.23;184.90;;;;;;;;;;4983907;28;20251;-55
2022/10/08 13:57:54;;;;;;;337.47;164.33;;;;;;;;;;4980443;28;20626;-55
2022/10/08 14:00:20;;;;;;;368.67;183.20;;;;;;;;;;4971266;28;20193;-56
2022/10/08 14:02:47;;;;;;;347.50;169.63;;;;;;;;;;4981799;28;20768;-55
2022/10/08 14:05:13;;;;;;;393.07;200.13;;;;;;;;;;4975726;28;20701;-56